メインページ
METAR-TAF:

METAR-TAF

空港 :

アルジェ, アルジェリア

ウアリ・ブーメディアン空港

緯度: 36-43N, 経度: 003-15E, 海抜: 25m

現時点の気象観測

当レポートは54分前の12:30(UTC)に作成
北/北西の風 7kt、西/北西からの間で変化する
気温 29°C
湿度 52%
気圧 1019 hPa
視程10km以上
高度3000ftの雲はほとんどない
高度23000ftの雲は散在している

METAR: DAAG 251230Z 33007KT 300V010 9999 FEW030 SCT230 29/18 Q1019

時間: 14:24 (13:24 UTC)

予報

当レポートは2時間24分前の11:00(UTC)に作成
予報は25日の 12時(UTC)から 26日の 12時(UTC)まで有効
北/北西の風 10kt
視程10km以上
1,500メートル以下は雲なし、積乱雲なし
25日の 16時(UTC)から 25日の 20時(UTC)まで徐々に
変向風 2kt
26日の 10時(UTC)から 26日の 12時(UTC)まで徐々に
北/北東の風 10kt

TAF: DAAG 251100Z 2512/2612 34010KT CAVOK BECMG 2516/2520 VRB02KT BECMG 2610/2612 02010KT

4,000以上の空港の気象観測と天気予報(METAR報とTAF報)

利用可能な観測所は地図上に黄色い丸と赤い丸で示す。

丸の上にカーソルを重ねると観測所名を参照できる。

次にクリックすると気象観測と天気予報を参照できる。

マップの切り替え:黒色「×」印の緑ボタンをクリックして拡大、「-」印の緑ボタンをクリックして縮小、緑色の三角印をクリックして隣りの地図に切り替え


METAR-TAF: